Time;durP1;ratioP1;P1;durP2;ratioP2;P2;SDS_P1;SDS_P2;PMS_P1;PMS_P2;Temp;Humidity;BMP_temperature;BMP_pressure;BME280_temperature;BME280_humidity;BME280_pressure;Samples;Min_cycle;Max_cycle;Signal;HPM_P1;HPM_P2
2023/01/30 00:01:15;;;;;;;40.08;31.88;;;5.90;99.90;;;;;;5029186;28;20076;-74
2023/01/30 00:03:40;;;;;;;41.33;32.67;;;6.00;99.90;;;;;;5013937;28;20053;-75
2023/01/30 00:06:06;;;;;;;40.58;33.13;;;6.00;99.90;;;;;;4993633;28;20555;-74
2023/01/30 00:08:32;;;;;;;38.85;31.50;;;6.00;99.90;;;;;;5014820;28;20030;-74
2023/01/30 00:11:04;;;;;;;38.10;31.50;;;6.00;99.90;;;;;;5008027;28;20069;-74
2023/01/30 00:13:29;;;;;;;45.93;33.73;;;6.00;99.90;;;;;;5007393;28;20046;-74
2023/01/30 00:15:55;;;;;;;39.58;31.67;;;6.00;99.90;;;;;;5009094;28;20034;-74
2023/01/30 00:18:20;;;;;;;41.45;32.38;;;6.00;99.90;;;;;;4992476;28;20077;-74
2023/01/30 00:20:46;;;;;;;41.88;32.22;;;6.00;99.90;;;;;;5016466;28;20107;-74
2023/01/30 00:23:11;;;;;;;40.55;32.92;;;6.10;99.90;;;;;;4994444;28;20034;-74
2023/01/30 00:25:37;;;;;;;38.80;31.70;;;6.00;99.90;;;;;;5009268;28;20076;-74
2023/01/30 00:28:03;;;;;;;39.60;32.30;;;6.10;99.90;;;;;;4992608;28;20038;-74
2023/01/30 00:30:29;;;;;;;39.38;32.10;;;6.10;99.90;;;;;;5013376;28;20041;-74
2023/01/30 00:32:56;;;;;;;40.38;32.67;;;6.10;99.90;;;;;;5012841;28;20037;-74
2023/01/30 00:35:27;;;;;;;39.25;31.63;;;6.10;99.90;;;;;;5013296;28;20045;-74
2023/01/30 00:37:56;;;;;;;37.20;29.60;;;6.10;99.90;;;;;;5013119;28;20372;-74
2023/01/30 00:40:21;;;;;;;38.53;29.80;;;6.10;99.90;;;;;;5013443;28;20361;-74
2023/01/30 00:48:15;;;;;;;38.17;29.83;;;6.10;99.90;;;;;;4993109;28;20507;-74
2023/01/30 00:50:43;;;;;;;36.15;29.52;;;6.20;99.90;;;;;;4976845;28;20082;-74
2023/01/30 00:53:14;;;;;;;34.75;28.92;;;6.20;99.90;;;;;;4987030;28;20034;-74
2023/01/30 00:55:40;;;;;;;34.88;28.15;;;6.20;99.90;;;;;;4995512;28;20041;-74
2023/01/30 00:58:06;;;;;;;35.75;27.98;;;6.20;99.90;;;;;;5015069;28;20041;-74
2023/01/30 01:00:32;;;;;;;37.15;27.40;;;6.20;99.90;;;;;;5012615;28;20064;-74
2023/01/30 01:02:58;;;;;;;36.05;26.65;;;6.20;99.90;;;;;;5010590;28;20080;-74
2023/01/30 01:05:23;;;;;;;32.08;25.60;;;6.20;99.90;;;;;;4996591;28;20069;-74
2023/01/30 01:07:49;;;;;;;32.25;25.08;;;6.20;99.90;;;;;;4995888;28;20034;-74
2023/01/30 01:10:15;;;;;;;28.73;23.90;;;6.30;99.90;;;;;;5014491;28;20041;-74
2023/01/30 01:12:45;;;;;;;30.05;22.65;;;6.30;99.90;;;;;;5015245;28;20029;-74
2023/01/30 01:15:12;;;;;;;31.60;24.08;;;6.30;99.90;;;;;;5012338;28;20512;-74
2023/01/30 01:17:39;;;;;;;31.10;23.05;;;6.30;99.90;;;;;;5012478;28;20038;-74
2023/01/30 01:20:05;;;;;;;31.08;23.90;;;6.40;99.90;;;;;;5022646;28;20050;-75
2023/01/30 01:22:31;;;;;;;29.88;23.50;;;6.30;99.90;;;;;;5008730;28;20500;-74
2023/01/30 01:24:57;;;;;;;33.15;23.63;;;6.30;99.90;;;;;;5012817;28;20125;-74
2023/01/30 01:27:22;;;;;;;35.38;22.63;;;6.30;99.90;;;;;;5020986;28;20053;-75
2023/01/30 01:29:48;;;;;;;32.92;21.50;;;6.40;99.90;;;;;;5016471;28;20091;-74
2023/01/30 01:32:14;;;;;;;33.35;21.98;;;6.30;99.90;;;;;;5027539;28;20112;-75
2023/01/30 01:34:39;;;;;;;31.90;20.98;;;6.30;99.90;;;;;;5013010;28;20037;-75
2023/01/30 01:37:05;;;;;;;36.45;22.20;;;6.30;99.90;;;;;;5003854;28;20045;-75
2023/01/30 01:42:14;;;;;;;32.50;20.85;;;6.30;99.90;;;;;;5027844;28;20050;-75
2023/01/30 01:44:59;;;;;;;32.65;19.17;;;6.30;99.90;;;;;;4995713;28;20116;-74
2023/01/30 01:47:24;;;;;;;31.95;18.48;;;6.40;99.90;;;;;;5013906;28;20555;-75
2023/01/30 01:49:50;;;;;;;30.67;17.08;;;6.40;99.90;;;;;;5022418;28;20077;-75
2023/01/30 01:52:16;;;;;;;27.10;16.42;;;6.40;99.90;;;;;;5012091;28;20118;-75
2023/01/30 01:54:57;;;;;;;28.08;16.40;;;6.40;99.90;;;;;;5012894;28;20500;-75
2023/01/30 01:57:51;;;;;;;25.77;14.50;;;6.40;99.90;;;;;;5012696;28;20404;-74
2023/01/30 02:00:18;;;;;;;28.35;15.00;;;6.40;99.90;;;;;;5011079;28;20380;-75
2023/01/30 02:02:57;;;;;;;30.17;13.88;;;6.40;99.90;;;;;;5014960;28;20038;-74
2023/01/30 02:05:27;;;;;;;28.85;14.15;;;6.40;99.90;;;;;;5005758;28;20454;-75
2023/01/30 02:08:03;;;;;;;33.75;14.48;;;6.40;99.90;;;;;;5012209;28;20042;-75
2023/01/30 02:11:01;;;;;;;23.90;13.48;;;6.40;99.90;;;;;;4996155;28;20108;-75
2023/01/30 02:13:27;;;;;;;18.67;12.65;;;6.40;99.90;;;;;;5010650;28;20070;-75
2023/01/30 02:15:54;;;;;;;21.05;11.95;;;6.40;99.90;;;;;;4993757;28;20530;-75
2023/01/30 02:18:20;;;;;;;22.13;11.95;;;6.40;99.90;;;;;;5012138;28;20439;-75
2023/01/30 02:21:11;;;;;;;22.10;11.82;;;6.40;99.90;;;;;;4995907;28;20084;-75
2023/01/30 02:24:10;;;;;;;26.00;12.43;;;6.40;99.90;;;;;;5011420;28;20038;-75
2023/01/30 02:26:56;;;;;;;22.45;11.20;;;6.40;99.90;;;;;;5006591;28;20049;-75
2023/01/30 02:29:47;;;;;;;23.67;10.10;;;6.40;99.90;;;;;;5015944;28;20132;-74
2023/01/30 02:32:28;;;;;;;21.10;9.95;;;6.40;99.90;;;;;;5002702;28;20065;-74
2023/01/30 02:35:16;;;;;;;18.10;9.80;;;6.40;99.90;;;;;;5011910;28;20128;-75
2023/01/30 02:37:52;;;;;;;22.63;10.02;;;6.40;99.90;;;;;;5011721;28;20042;-75
2023/01/30 02:40:38;;;;;;;22.65;10.52;;;6.40;99.90;;;;;;5002847;28;20091;-75
2023/01/30 02:43:25;;;;;;;18.35;9.63;;;6.40;99.90;;;;;;5015211;28;20037;-75
2023/01/30 02:45:59;;;;;;;20.23;9.90;;;6.40;99.90;;;;;;5000051;28;20041;-75
2023/01/30 02:48:46;;;;;;;21.25;9.70;;;6.30;99.90;;;;;;5031226;28;20068;-75
2023/01/30 02:51:15;;;;;;;22.30;9.68;;;6.30;99.90;;;;;;5031740;28;20037;-75
2023/01/30 02:53:40;;;;;;;21.15;9.93;;;6.30;99.90;;;;;;4995441;28;20041;-75
2023/01/30 02:56:06;;;;;;;22.38;9.57;;;6.30;99.90;;;;;;5004390;28;20040;-75
2023/01/30 02:58:41;;;;;;;17.20;9.65;;;6.30;99.90;;;;;;5031111;28;20049;-75
2023/01/30 03:01:53;;;;;;;24.45;10.25;;;6.30;99.90;;;;;;5031601;28;20426;-75
2023/01/30 03:04:38;;;;;;;24.83;10.02;;;6.40;99.90;;;;;;5010131;28;20045;-75
2023/01/30 03:07:11;;;;;;;25.13;10.00;;;6.40;99.90;;;;;;5001950;28;20121;-75
2023/01/30 03:09:52;;;;;;;19.20;9.38;;;6.40;99.90;;;;;;5019420;28;20121;-75
2023/01/30 03:12:45;;;;;;;21.75;9.00;;;6.30;99.90;;;;;;5009274;28;20096;-75
2023/01/30 03:15:26;;;;;;;19.35;8.32;;;6.40;99.90;;;;;;5011587;28;20511;-75
2023/01/30 03:17:52;;;;;;;20.30;7.97;;;6.30;99.90;;;;;;5010491;28;20052;-74
2023/01/30 03:20:19;;;;;;;25.88;9.48;;;6.40;99.90;;;;;;5018489;28;20443;-74
2023/01/30 03:22:45;;;;;;;20.38;9.23;;;6.30;99.90;;;;;;4993558;28;20045;-75
2023/01/30 03:25:16;;;;;;;21.90;8.57;;;6.40;99.90;;;;;;4992769;28;20043;-75
2023/01/30 03:27:42;;;;;;;21.48;9.10;;;6.30;99.90;;;;;;5023567;28;20030;-74
2023/01/30 03:30:09;;;;;;;20.92;8.93;;;6.30;99.90;;;;;;5011027;28;20046;-75
2023/01/30 03:32:34;;;;;;;21.95;8.80;;;6.30;99.90;;;;;;4992987;28;20042;-74
2023/01/30 03:35:00;;;;;;;23.00;9.68;;;6.40;99.90;;;;;;5009987;28;20045;-74
2023/01/30 03:37:26;;;;;;;28.23;9.52;;;6.40;99.90;;;;;;5013329;28;20087;-74
2023/01/30 03:39:52;;;;;;;24.02;9.90;;;6.40;99.90;;;;;;4994695;28;20085;-75
2023/01/30 03:42:17;;;;;;;23.23;8.40;;;6.40;99.90;;;;;;5009593;28;20092;-75
2023/01/30 03:44:43;;;;;;;22.77;8.95;;;6.40;99.90;;;;;;5010238;28;20037;-74
2023/01/30 03:47:09;;;;;;;17.33;8.77;;;6.40;99.90;;;;;;5018316;28;20042;-74
2023/01/30 03:49:34;;;;;;;22.50;9.55;;;6.50;99.90;;;;;;4994417;28;20041;-74
2023/01/30 03:52:00;;;;;;;22.70;9.52;;;6.50;99.90;;;;;;5010168;28;20084;-74
2023/01/30 03:54:25;;;;;;;28.13;8.95;;;6.50;99.90;;;;;;5010527;28;20033;-74
2023/01/30 03:56:51;;;;;;;31.17;9.65;;;6.50;99.90;;;;;;5010120;28;20048;-74
2023/01/30 03:59:16;;;;;;;25.27;9.48;;;6.50;99.90;;;;;;5018427;28;20044;-74
2023/01/30 04:01:42;;;;;;;25.40;8.75;;;6.40;99.90;;;;;;5009757;28;20045;-74
2023/01/30 04:04:08;;;;;;;29.27;9.45;;;6.40;99.90;;;;;;5011122;28;20048;-74
2023/01/30 04:06:33;;;;;;;18.73;8.05;;;6.40;99.90;;;;;;4994071;28;20077;-74
2023/01/30 04:08:59;;;;;;;24.33;8.75;;;6.40;99.90;;;;;;5013870;28;20148;-74
2023/01/30 04:11:24;;;;;;;23.52;8.30;;;6.40;99.90;;;;;;5020126;28;20045;-74
2023/01/30 04:13:50;;;;;;;22.73;7.57;;;6.40;99.90;;;;;;5013597;28;20128;-74
2023/01/30 04:16:22;;;;;;;25.23;8.43;;;6.40;99.90;;;;;;5015843;28;20475;-74
2023/01/30 04:18:48;;;;;;;22.45;7.47;;;6.40;99.90;;;;;;5022954;28;20041;-74
2023/01/30 04:21:14;;;;;;;24.60;8.00;;;6.40;99.90;;;;;;5014440;28;20407;-74
2023/01/30 04:23:40;;;;;;;17.15;7.15;;;6.40;99.90;;;;;;5010913;28;20037;-74
2023/01/30 04:26:07;;;;;;;20.38;6.32;;;6.40;99.90;;;;;;5015895;28;20044;-74
2023/01/30 04:28:33;;;;;;;19.15;6.95;;;6.40;99.90;;;;;;5033722;28;20116;-74
2023/01/30 04:30:58;;;;;;;24.15;6.90;;;6.40;99.90;;;;;;5034036;28;20129;-73
2023/01/30 04:33:24;;;;;;;20.50;6.13;;;6.30;99.90;;;;;;5019873;28;20030;-73
2023/01/30 04:35:58;;;;;;;15.48;5.05;;;6.40;99.90;;;;;;5014076;28;20085;-73
2023/01/30 04:38:25;;;;;;;14.93;4.70;;;6.30;99.90;;;;;;5012926;28;20057;-74
2023/01/30 04:40:52;;;;;;;16.52;5.65;;;6.30;99.90;;;;;;5022235;28;20041;-73
2023/01/30 04:43:20;;;;;;;15.77;5.22;;;6.30;99.90;;;;;;5021308;28;20030;-73
2023/01/30 04:45:47;;;;;;;19.20;5.35;;;6.30;99.90;;;;;;5014124;28;20050;-73
2023/01/30 04:48:13;;;;;;;17.35;5.40;;;6.30;99.90;;;;;;4996345;28;20463;-73
2023/01/30 04:50:40;;;;;;;15.00;4.50;;;6.20;99.90;;;;;;5021959;28;20041;-73
2023/01/30 04:53:06;;;;;;;17.85;4.05;;;6.20;99.90;;;;;;5021373;28;20052;-73
2023/01/30 04:55:32;;;;;;;15.73;3.78;;;6.20;99.90;;;;;;5013686;28;20412;-74
2023/01/30 04:57:57;;;;;;;15.75;4.40;;;6.20;99.90;;;;;;5013451;28;20068;-73
2023/01/30 05:00:23;;;;;;;20.75;4.63;;;6.10;99.90;;;;;;5013809;28;20057;-73
2023/01/30 05:02:49;;;;;;;21.77;4.95;;;6.10;99.90;;;;;;5011505;28;20048;-73
2023/01/30 05:05:15;;;;;;;18.50;4.30;;;6.10;99.90;;;;;;5005307;28;20107;-73
2023/01/30 05:07:41;;;;;;;14.50;4.00;;;6.00;99.90;;;;;;5013183;28;20066;-73
2023/01/30 05:10:07;;;;;;;15.25;4.20;;;6.00;99.90;;;;;;4997502;28;20049;-73
2023/01/30 05:12:32;;;;;;;16.02;4.03;;;6.00;99.90;;;;;;5011040;28;20084;-73
2023/01/30 05:14:58;;;;;;;14.63;3.65;;;6.00;99.90;;;;;;5012398;28;20512;-73
2023/01/30 05:17:23;;;;;;;16.85;3.67;;;5.90;99.90;;;;;;5017784;28;20045;-73
2023/01/30 05:19:49;;;;;;;13.90;3.97;;;5.90;99.90;;;;;;5031873;28;20045;-73
2023/01/30 05:22:15;;;;;;;20.10;4.05;;;5.80;99.90;;;;;;5014731;28;20048;-73
2023/01/30 05:24:40;;;;;;;17.70;4.72;;;5.70;99.90;;;;;;5012691;28;20064;-73
2023/01/30 05:27:06;;;;;;;12.63;3.70;;;5.70;99.90;;;;;;5012945;28;20038;-72
2023/01/30 05:29:31;;;;;;;19.13;4.53;;;5.70;99.90;;;;;;5018009;28;20037;-73
2023/01/30 05:31:57;;;;;;;20.70;4.90;;;5.60;99.90;;;;;;5023063;28;20080;-73
2023/01/30 05:34:22;;;;;;;17.83;4.72;;;5.50;99.90;;;;;;5013052;28;20104;-72
2023/01/30 05:36:48;;;;;;;16.85;4.63;;;5.50;99.90;;;;;;5012793;28;20499;-73
2023/01/30 05:39:13;;;;;;;21.15;4.70;;;5.50;99.90;;;;;;4996702;28;20045;-73
2023/01/30 05:41:39;;;;;;;17.73;4.13;;;5.40;99.90;;;;;;5013332;28;20041;-72
2023/01/30 05:44:05;;;;;;;24.38;5.90;;;5.30;99.90;;;;;;5011219;28;20038;-72
2023/01/30 05:46:30;;;;;;;20.50;4.65;;;5.40;99.90;;;;;;5020858;28;20041;-73
2023/01/30 05:48:56;;;;;;;17.63;4.72;;;5.30;99.90;;;;;;5012489;28;20069;-72
2023/01/30 05:51:24;;;;;;;19.58;4.63;;;5.30;99.90;;;;;;4996471;28;20499;-72
2023/01/30 05:53:50;;;;;;;23.60;5.40;;;5.30;99.90;;;;;;4994590;28;20034;-73
2023/01/30 05:56:16;;;;;;;21.13;5.18;;;5.30;99.90;;;;;;4996539;28;20065;-73
2023/01/30 05:58:42;;;;;;;20.50;4.20;;;5.20;99.90;;;;;;5012434;28;20050;-73
2023/01/30 06:01:11;;;;;;;21.33;5.10;;;5.20;99.90;;;;;;4993437;28;20046;-73
2023/01/30 06:03:37;;;;;;;23.00;5.40;;;5.10;99.90;;;;;;5009335;28;20054;-72
2023/01/30 06:06:04;;;;;;;17.95;4.57;;;5.10;99.90;;;;;;5012350;28;20073;-73
2023/01/30 06:08:31;;;;;;;16.65;4.57;;;5.00;99.90;;;;;;5016714;28;20029;-72
2023/01/30 06:11:03;;;;;;;23.75;5.22;;;5.00;99.90;;;;;;5024143;28;20525;-72
2023/01/30 06:13:28;;;;;;;18.67;4.18;;;4.90;99.90;;;;;;5013013;28;20239;-72
2023/01/30 06:15:54;;;;;;;21.45;4.50;;;4.90;99.90;;;;;;5012253;28;20037;-72
2023/01/30 06:18:20;;;;;;;19.00;4.55;;;4.90;99.90;;;;;;5010386;28;20096;-72
2023/01/30 06:20:50;;;;;;;14.52;3.75;;;4.90;99.90;;;;;;5011055;28;20129;-73
2023/01/30 06:23:16;;;;;;;21.85;4.53;;;4.80;99.90;;;;;;5005655;28;20038;-72
2023/01/30 06:25:45;;;;;;;18.73;4.57;;;4.80;99.90;;;;;;5011042;28;20045;-71
2023/01/30 06:28:12;;;;;;;19.42;4.28;;;4.80;99.90;;;;;;5008331;28;20084;-72
2023/01/30 06:30:38;;;;;;;20.02;4.57;;;4.80;99.90;;;;;;4991289;28;20042;-72
2023/01/30 06:33:03;;;;;;;20.75;4.70;;;4.70;99.90;;;;;;4985461;28;20083;-69
2023/01/30 06:35:29;;;;;;;19.45;4.05;;;4.70;99.90;;;;;;5017577;28;20038;-69
2023/01/30 06:37:55;;;;;;;19.17;4.95;;;4.70;99.90;;;;;;5005953;28;20038;-69
2023/01/30 06:40:20;;;;;;;21.60;5.50;;;4.70;99.90;;;;;;5011512;28;20404;-69
2023/01/30 06:42:47;;;;;;;24.02;5.53;;;4.70;99.90;;;;;;5011836;28;20057;-69
2023/01/30 06:45:18;;;;;;;22.05;4.20;;;4.80;99.90;;;;;;4995409;28;20176;-69
2023/01/30 06:47:49;;;;;;;20.05;4.95;;;4.80;99.90;;;;;;4994549;28;20046;-69
2023/01/30 06:50:16;;;;;;;20.48;4.30;;;4.80;99.90;;;;;;5022872;28;20095;-70
2023/01/30 06:52:43;;;;;;;19.70;4.55;;;4.90;99.90;;;;;;5031386;28;20084;-69
2023/01/30 06:55:11;;;;;;;25.15;5.13;;;4.90;99.90;;;;;;5031359;28;20042;-69
2023/01/30 06:57:37;;;;;;;22.88;4.82;;;4.90;99.90;;;;;;5028122;28;20072;-69
2023/01/30 07:00:05;;;;;;;23.45;4.57;;;4.90;99.90;;;;;;5019797;28;20527;-69
2023/01/30 07:02:34;;;;;;;23.80;5.10;;;4.90;99.90;;;;;;5006625;28;20065;-69
2023/01/30 07:05:00;;;;;;;19.02;4.00;;;4.90;99.90;;;;;;5009149;28;20044;-70
2023/01/30 07:07:26;;;;;;;22.88;4.65;;;4.90;99.90;;;;;;5008095;28;20048;-70
2023/01/30 07:09:51;;;;;;;21.58;4.13;;;4.80;99.90;;;;;;5010271;28;20042;-69
2023/01/30 07:12:17;;;;;;;22.67;4.68;;;4.80;99.90;;;;;;4992345;28;20034;-70
2023/01/30 07:14:43;;;;;;;24.08;4.65;;;4.70;99.90;;;;;;4991852;28;20041;-73
2023/01/30 07:17:08;;;;;;;22.13;4.07;;;4.70;99.90;;;;;;5008570;28;20041;-70
2023/01/30 07:19:34;;;;;;;19.55;4.30;;;4.60;99.90;;;;;;5018986;28;20516;-71
2023/01/30 07:21:59;;;;;;;19.77;4.18;;;4.60;99.90;;;;;;5006812;28;20038;-70
2023/01/30 07:24:25;;;;;;;21.23;4.07;;;4.50;99.90;;;;;;5014139;28;20049;-70
2023/01/30 07:26:50;;;;;;;17.00;3.72;;;4.60;99.90;;;;;;5030506;28;20120;-70
2023/01/30 07:29:16;;;;;;;18.52;4.25;;;4.60;99.90;;;;;;5027498;28;20045;-70
2023/01/30 07:31:41;;;;;;;18.27;4.40;;;4.70;99.90;;;;;;5018937;28;20514;-69
2023/01/30 07:34:07;;;;;;;19.35;3.88;;;4.70;99.90;;;;;;5029579;28;20449;-70
2023/01/30 07:36:33;;;;;;;22.38;4.38;;;4.80;99.90;;;;;;5014166;28;20041;-70
2023/01/30 07:39:02;;;;;;;18.27;4.10;;;4.90;99.90;;;;;;5020529;28;20069;-70
2023/01/30 07:41:28;;;;;;;19.60;4.50;;;4.90;99.90;;;;;;5022481;28;20124;-70
2023/01/30 07:43:53;;;;;;;20.60;4.22;;;4.90;99.90;;;;;;5013647;28;20116;-69
2023/01/30 07:46:19;;;;;;;20.63;4.35;;;5.00;99.90;;;;;;5021087;28;20033;-70
2023/01/30 07:48:45;;;;;;;21.92;4.82;;;5.00;99.90;;;;;;5021782;28;20088;-70
2023/01/30 07:51:10;;;;;;;20.23;4.32;;;5.00;99.90;;;;;;5030591;28;20049;-70
2023/01/30 07:53:36;;;;;;;17.02;4.15;;;5.00;99.90;;;;;;5023258;28;20078;-70
2023/01/30 07:56:09;;;;;;;21.90;4.50;;;5.10;99.90;;;;;;5022094;28;20038;-70
2023/01/30 07:58:35;;;;;;;21.73;5.85;;;5.10;99.90;;;;;;5030334;28;20053;-70
2023/01/30 08:01:02;;;;;;;22.35;4.88;;;5.10;99.90;;;;;;5030373;28;20125;-70
2023/01/30 08:03:27;;;;;;;17.98;4.10;;;5.20;99.90;;;;;;5023504;28;20046;-70
2023/01/30 08:05:53;;;;;;;20.38;4.32;;;5.20;99.90;;;;;;5022276;28;20053;-70
2023/01/30 08:08:19;;;;;;;20.83;4.85;;;5.20;99.90;;;;;;5029900;28;20069;-70
2023/01/30 08:10:47;;;;;;;22.13;4.50;;;5.30;99.90;;;;;;5018256;28;20110;-70
2023/01/30 08:13:13;;;;;;;24.08;5.40;;;5.40;99.90;;;;;;5031229;28;20408;-70
2023/01/30 08:15:39;;;;;;;23.45;4.85;;;5.40;99.90;;;;;;5030143;28;20033;-70
2023/01/30 08:18:06;;;;;;;20.95;4.20;;;5.50;99.90;;;;;;5004251;28;20418;-70
2023/01/30 08:20:32;;;;;;;19.48;4.40;;;5.50;99.90;;;;;;5024170;28;20124;-70
2023/01/30 08:22:59;;;;;;;26.02;5.25;;;5.50;99.90;;;;;;5025266;28;20132;-70
2023/01/30 08:25:25;;;;;;;21.98;4.88;;;5.50;99.90;;;;;;5023526;28;20045;-70
2023/01/30 08:27:51;;;;;;;22.85;4.90;;;5.60;99.90;;;;;;5022772;28;20187;-70
2023/01/30 08:30:18;;;;;;;25.33;5.53;;;5.60;99.90;;;;;;5023425;28;20037;-70
2023/01/30 08:32:44;;;;;;;23.73;4.95;;;5.60;99.90;;;;;;5029996;28;20042;-70
2023/01/30 08:35:10;;;;;;;21.73;4.95;;;5.70;99.90;;;;;;5019967;28;20457;-70
2023/01/30 08:37:38;;;;;;;22.30;4.82;;;5.70;99.90;;;;;;5007948;28;20107;-70
2023/01/30 08:40:04;;;;;;;19.05;4.53;;;5.60;99.90;;;;;;5030001;28;20456;-70
2023/01/30 08:42:29;;;;;;;19.05;4.82;;;5.70;99.90;;;;;;5018335;28;20052;-70
2023/01/30 08:44:55;;;;;;;18.63;4.20;;;5.70;99.90;;;;;;5027149;28;20053;-70
2023/01/30 08:47:20;;;;;;;17.70;4.15;;;5.70;99.90;;;;;;5029495;28;20030;-70
2023/01/30 08:49:46;;;;;;;20.95;4.47;;;5.70;99.90;;;;;;5026056;28;20137;-70
2023/01/30 08:52:12;;;;;;;19.27;4.78;;;5.80;99.90;;;;;;5021587;28;20033;-70
2023/01/30 08:54:37;;;;;;;21.17;4.53;;;5.80;99.90;;;;;;5032191;28;20087;-70
2023/01/30 08:57:03;;;;;;;18.35;3.97;;;5.80;99.90;;;;;;5027343;28;20440;-70
2023/01/30 08:59:29;;;;;;;19.23;4.53;;;5.80;99.90;;;;;;5025239;28;20052;-70
2023/01/30 09:01:55;;;;;;;18.95;4.38;;;5.90;99.90;;;;;;5030753;28;20046;-70
2023/01/30 09:04:23;;;;;;;19.08;4.70;;;5.90;99.90;;;;;;5025435;28;20052;-70
2023/01/30 09:06:49;;;;;;;18.35;4.25;;;6.00;99.90;;;;;;5028094;28;20041;-70
2023/01/30 09:09:14;;;;;;;19.23;4.15;;;6.00;99.90;;;;;;5020410;28;20057;-70
2023/01/30 09:11:40;;;;;;;14.48;4.10;;;6.00;99.90;;;;;;5021881;28;20044;-70
2023/01/30 09:14:06;;;;;;;26.80;4.65;;;6.00;99.90;;;;;;5014721;28;20088;-70
2023/01/30 09:16:31;;;;;;;14.82;4.22;;;6.10;99.90;;;;;;5013196;28;20069;-70
2023/01/30 09:18:57;;;;;;;20.65;4.43;;;6.20;99.90;;;;;;5013252;28;20042;-70
2023/01/30 09:21:23;;;;;;;17.73;4.38;;;6.20;99.90;;;;;;5017032;28;20119;-70
2023/01/30 09:23:48;;;;;;;22.80;4.90;;;6.20;99.90;;;;;;5031490;28;20480;-70
2023/01/30 09:26:14;;;;;;;19.38;4.57;;;6.30;99.90;;;;;;5033294;28;20083;-70
2023/01/30 09:28:40;;;;;;;18.77;4.78;;;6.30;99.90;;;;;;5032725;28;20029;-70
2023/01/30 09:31:05;;;;;;;17.25;4.05;;;6.30;99.90;;;;;;5028915;28;20131;-70
2023/01/30 09:33:31;;;;;;;20.05;4.53;;;6.40;99.90;;;;;;5026256;28;20488;-70
2023/01/30 09:35:56;;;;;;;21.70;4.60;;;6.40;99.90;;;;;;5032808;28;20044;-70
2023/01/30 09:38:22;;;;;;;18.55;3.92;;;6.40;99.90;;;;;;5032525;28;20462;-70
2023/01/30 09:41:08;;;;;;;19.08;4.35;;;6.40;99.90;;;;;;5032648;28;20076;-70
2023/01/30 09:43:40;;;;;;;19.85;4.57;;;6.40;99.90;;;;;;5032384;28;20434;-70
2023/01/30 09:46:23;;;;;;;19.30;4.33;;;6.50;99.90;;;;;;5013145;28;20046;-70
2023/01/30 09:49:06;;;;;;;;;;;6.60;99.90;;;;;;5029146;28;20451;-70
2023/01/30 09:52:02;;;;;;;24.70;5.15;;;6.60;99.90;;;;;;5032635;28;19936;-70
2023/01/30 09:54:33;;;;;;;26.33;5.00;;;6.60;99.90;;;;;;5019349;28;20553;-70
2023/01/30 09:57:19;;;;;;;21.70;4.47;;;6.60;99.90;;;;;;5032413;28;20423;-70
2023/01/30 10:00:03;;;;;;;23.25;5.25;;;6.60;99.90;;;;;;5012242;28;20077;-70
2023/01/30 10:02:56;;;;;;;20.85;4.43;;;6.70;99.90;;;;;;5016722;28;20064;-70
2023/01/30 10:05:37;;;;;;;23.48;5.05;;;6.80;99.90;;;;;;5019410;28;20046;-70
2023/01/30 10:08:25;;;;;;;23.08;4.70;;;7.00;99.90;;;;;;5030361;28;20482;-70
2023/01/30 10:11:21;;;;;;;17.50;4.38;;;7.20;99.90;;;;;;5028926;28;20115;-70
2023/01/30 10:14:06;;;;;;;18.38;5.15;;;7.20;99.90;;;;;;5028561;28;20474;-70
2023/01/30 10:16:46;;;;;;;21.30;4.85;;;7.20;99.90;;;;;;5033190;28;20052;-70
2023/01/30 10:20:13;;;;;;;;;;;;;;;;;;;;;
2023/01/30 10:30:25;;;;;;;;;;;;;;;;;;;;;
2023/01/30 10:33:57;;;;;;;;;;;;;;;;;;;;;
2023/01/30 10:37:38;;;;;;;22.08;4.82;;;7.70;99.90;;;;;;5017846;28;20033;-77
2023/01/30 10:44:08;;;;;;;20.75;5.15;;;7.90;99.90;;;;;;4975583;28;20042;-77
2023/01/30 10:47:19;;;;;;;18.53;4.30;;;7.80;99.90;;;;;;4939127;28;20046;-77
2023/01/30 10:50:38;;;;;;;18.27;4.32;;;7.80;99.90;;;;;;4968816;28;20299;-77
2023/01/30 10:54:14;;;;;;;;;;;;;;;;;;;;;
2023/01/30 10:57:36;;;;;;;;;;;;;;;;;;;;;
2023/01/30 11:01:15;;;;;;;19.17;4.47;;;7.70;99.90;;;;;;5032735;28;20049;-77
2023/01/30 11:04:05;;;;;;;21.63;4.97;;;7.70;99.90;;;;;;4981135;28;20140;-76
2023/01/30 11:06:54;;;;;;;21.67;4.85;;;7.80;99.90;;;;;;5013646;28;20050;-77
2023/01/30 11:09:43;;;;;;;17.52;4.35;;;7.80;99.90;;;;;;5014005;28;20041;-77
2023/01/30 11:12:16;;;;;;;19.50;5.60;;;7.90;99.90;;;;;;5014683;28;20069;-76
2023/01/30 11:15:05;;;;;;;18.75;4.90;;;8.00;99.90;;;;;;5005933;28;20103;-77
2023/01/30 11:18:28;;;;;;;17.33;4.57;;;8.00;99.90;;;;;;4998292;28;20768;-77
2023/01/30 11:21:49;;;;;;;26.90;4.88;;;8.00;99.90;;;;;;5015044;28;20065;-77
2023/01/30 11:29:00;;;;;;;28.60;4.95;;;8.10;99.90;;;;;;5029439;28;20071;-77
2023/01/30 11:34:46;;;;;;;25.50;5.30;;;7.90;99.90;;;;;;5015740;28;20046;-77
2023/01/30 11:38:19;;;;;;;19.70;5.30;;;7.90;99.90;;;;;;5007685;28;20695;-77
2023/01/30 11:41:06;;;;;;;20.27;4.78;;;8.00;99.90;;;;;;5008014;28;20121;-77
2023/01/30 11:43:59;;;;;;;20.92;4.95;;;8.10;99.90;;;;;;4996800;28;20068;-77
2023/01/30 11:47:03;;;;;;;;;;;;;;;;;;;;;
2023/01/30 11:50:01;;;;;;;19.92;4.35;;;8.10;99.90;;;;;;5030270;28;20065;-77
2023/01/30 11:52:43;;;;;;;26.23;6.35;;;8.10;99.90;;;;;;5014252;28;20030;-79
2023/01/30 11:55:23;;;;;;;21.13;5.63;;;8.20;99.90;;;;;;5011629;28;20029;-77
2023/01/30 11:57:58;;;;;;;19.98;4.80;;;8.30;99.90;;;;;;5005400;28;20037;-78
2023/01/30 12:00:49;;;;;;;21.88;5.65;;;8.30;99.90;;;;;;5014549;28;20153;-78
2023/01/30 12:03:18;;;;;;;24.65;5.95;;;8.30;99.90;;;;;;5001127;28;20492;-77
2023/01/30 12:05:54;;;;;;;21.17;5.75;;;8.10;99.90;;;;;;5012743;28;20045;-77
2023/01/30 12:08:31;;;;;;;22.60;5.53;;;8.00;99.90;;;;;;5013794;28;20037;-77
2023/01/30 12:11:01;;;;;;;22.85;5.30;;;8.00;99.90;;;;;;5003818;28;20056;-77
2023/01/30 12:13:51;;;;;;;20.23;4.63;;;8.00;99.90;;;;;;5013882;28;20522;-79
2023/01/30 12:16:47;;;;;;;21.88;5.00;;;7.90;99.90;;;;;;5014681;28;20044;-78
2023/01/30 12:19:29;;;;;;;19.98;3.80;;;7.80;99.90;;;;;;5009500;28;20033;-78
2023/01/30 12:26:42;;;;;;;19.48;4.70;;;7.50;99.90;;;;;;4959512;28;20038;-79
2023/01/30 12:32:31;;;;;;;16.50;4.35;;;7.50;99.90;;;;;;5015915;28;20103;-77
2023/01/30 12:35:29;;;;;;;13.13;3.00;;;7.50;99.90;;;;;;5014840;28;20095;-77
2023/01/30 12:38:27;;;;;;;14.77;3.10;;;7.40;99.90;;;;;;5007433;28;20037;-77
2023/01/30 12:41:12;;;;;;;12.07;2.40;;;7.00;99.90;;;;;;5003968;28;20050;-77
2023/01/30 12:44:42;;;;;;;11.95;3.50;;;6.80;99.90;;;;;;5018450;28;20456;-78
2023/01/30 12:47:28;;;;;;;;;;;6.70;99.90;;;;;;5017619;28;20084;-77
2023/01/30 12:50:13;;;;;;;9.73;2.55;;;6.60;99.90;;;;;;5015092;28;19924;-79
2023/01/30 12:53:41;;;;;;;9.20;2.45;;;6.80;99.90;;;;;;5008611;28;20038;-77
2023/01/30 12:56:24;;;;;;;10.65;2.53;;;7.10;99.90;;;;;;5017070;28;20041;-78
2023/01/30 13:02:59;;;;;;;;;;;;;;;;;;;;;
2023/01/30 13:05:44;;;;;;;14.95;3.10;;;7.90;99.90;;;;;;5029712;28;20565;-78
2023/01/30 13:11:55;;;;;;;14.48;3.40;;;8.20;99.90;;;;;;5026622;28;20041;-78
2023/01/30 13:15:02;;;;;;;15.77;4.00;;;8.20;99.90;;;;;;5018119;28;20116;-77
2023/01/30 13:17:59;;;;;;;16.40;3.92;;;8.20;99.90;;;;;;5013594;28;20041;-78
2023/01/30 13:21:10;;;;;;;16.70;3.33;;;8.30;99.90;;;;;;5006062;28;20049;-78
2023/01/30 13:24:01;;;;;;;20.55;4.82;;;8.20;99.90;;;;;;5005516;28;20038;-80
2023/01/30 13:26:33;;;;;;;18.73;4.20;;;8.20;99.90;;;;;;4993759;28;20519;-78
2023/01/30 13:29:48;;;;;;;16.50;3.90;;;8.20;99.90;;;;;;5007045;28;20535;-78
2023/01/30 13:32:55;;;;;;;;;;;;;;;;;;;;;
2023/01/30 13:39:35;;;;;;;15.15;4.20;;;8.00;99.90;;;;;;5008932;28;20505;-77
2023/01/30 13:42:16;;;;;;;22.30;4.25;;;7.90;99.90;;;;;;4995873;28;20046;-77
2023/01/30 13:44:50;;;;;;;21.98;5.10;;;7.80;99.90;;;;;;5007829;28;20033;-77
2023/01/30 13:47:41;;;;;;;20.35;5.00;;;7.80;99.90;;;;;;4999852;28;20037;-78
2023/01/30 13:53:45;;;;;;;21.05;5.68;;;7.70;99.90;;;;;;5020680;28;20404;-78
2023/01/30 13:56:35;;;;;;;23.23;5.70;;;7.70;99.90;;;;;;4996194;28;20037;-79
2023/01/30 13:59:16;;;;;;;21.02;4.93;;;7.80;99.90;;;;;;4996990;28;20492;-79
2023/01/30 14:02:08;;;;;;;24.60;4.38;;;7.80;99.90;;;;;;5006681;28;20421;-79
2023/01/30 14:04:40;;;;;;;23.48;5.38;;;7.80;99.90;;;;;;5010893;28;20132;-78
2023/01/30 14:07:38;;;;;;;21.98;5.82;;;7.80;99.90;;;;;;5012832;28;20094;-79
2023/01/30 14:10:12;;;;;;;24.00;6.07;;;7.80;99.90;;;;;;5021718;28;20044;-79
2023/01/30 14:13:04;;;;;;;25.83;5.35;;;7.70;99.90;;;;;;5014502;28;20049;-79
2023/01/30 14:16:04;;;;;;;24.88;5.35;;;7.70;99.90;;;;;;4997811;28;20034;-81
2023/01/30 14:19:00;;;;;;;;;;;;;;;;;;;;;
2023/01/30 14:22:26;;;;;;;23.00;5.95;;;8.00;99.90;;;;;;5012821;28;20053;-78
2023/01/30 14:25:25;;;;;;;22.00;4.70;;;8.20;99.90;;;;;;5001602;28;20125;-79